createdAt,value
2022-12-14T00:01:34.732Z,12.07
2022-12-14T00:04:01.458Z,13.00
2022-12-14T00:06:30.779Z,12.73
2022-12-14T00:08:59.958Z,13.03
2022-12-14T00:11:27.512Z,12.48
2022-12-14T00:13:57.149Z,12.80
2022-12-14T00:16:26.389Z,12.10
2022-12-14T00:18:54.599Z,13.30
2022-12-14T00:21:22.081Z,12.87
2022-12-14T00:23:50.384Z,13.70
2022-12-14T00:26:29.681Z,12.75
2022-12-14T00:28:58.071Z,12.23
2022-12-14T00:31:25.408Z,13.10
2022-12-14T00:33:52.617Z,13.30
2022-12-14T00:36:20.270Z,12.98
2022-12-14T00:38:46.990Z,14.27
2022-12-14T00:41:13.821Z,46.13
2022-12-14T00:43:41.037Z,12.73
2022-12-14T00:46:08.475Z,11.87
2022-12-14T00:48:35.697Z,14.23
2022-12-14T00:51:02.449Z,12.98
2022-12-14T00:53:29.202Z,13.65
2022-12-14T00:55:55.961Z,15.88
2022-12-14T00:58:24.938Z,40.70
2022-12-14T01:01:04.042Z,310.13
2022-12-14T01:03:31.537Z,10.48
2022-12-14T01:05:58.854Z,11.48
2022-12-14T01:08:25.910Z,13.00
2022-12-14T01:10:53.058Z,11.88
2022-12-14T01:13:19.736Z,12.20
2022-12-14T01:15:46.839Z,11.63
2022-12-14T01:18:13.681Z,12.50
2022-12-14T01:20:40.345Z,11.75
2022-12-14T01:23:07.165Z,12.52
2022-12-14T01:25:34.325Z,11.85
2022-12-14T01:28:01.026Z,11.02
2022-12-14T01:30:27.897Z,11.32
2022-12-14T01:32:54.619Z,12.33
2022-12-14T01:35:21.356Z,13.48
2022-12-14T01:37:49.196Z,12.63
2022-12-14T01:40:16.824Z,12.07
2022-12-14T01:42:43.653Z,12.63
2022-12-14T01:45:22.181Z,12.70
2022-12-14T01:47:59.950Z,12.05
2022-12-14T01:50:29.926Z,11.52
2022-12-14T01:53:01.611Z,11.40
2022-12-14T01:55:33.437Z,12.90
2022-12-14T01:58:12.193Z,12.43
2022-12-14T02:00:38.991Z,10.68
2022-12-14T02:03:15.069Z,11.65
2022-12-14T02:05:47.695Z,11.45
2022-12-14T02:08:16.245Z,11.98
2022-12-14T02:10:44.569Z,12.07
2022-12-14T02:13:31.479Z,12.10
2022-12-14T02:15:58.696Z,12.45
2022-12-14T02:18:28.238Z,12.48
2022-12-14T02:21:01.407Z,12.20
2022-12-14T02:23:37.375Z,11.43
2022-12-14T02:26:31.043Z,11.70
2022-12-14T02:29:07.002Z,12.13
2022-12-14T02:31:41.019Z,12.10
2022-12-14T02:34:39.985Z,12.05
2022-12-14T02:37:25.143Z,13.13
2022-12-14T02:40:22.539Z,10.35
2022-12-14T02:43:17.282Z,12.00
2022-12-14T02:45:54.946Z,13.87
2022-12-14T02:48:26.270Z,11.02
2022-12-14T02:51:30.972Z,11.10
2022-12-14T02:54:02.640Z,11.50
2022-12-14T02:56:36.546Z,11.40
2022-12-14T02:59:06.423Z,11.32
2022-12-14T03:01:36.678Z,11.73
2022-12-14T03:04:03.820Z,11.73
2022-12-14T03:06:30.873Z,11.23
2022-12-14T03:09:11.066Z,11.27
2022-12-14T03:11:48.993Z,12.50
2022-12-14T03:14:29.734Z,11.55
2022-12-14T03:17:05.135Z,11.93
2022-12-14T03:19:44.705Z,10.48
2022-12-14T03:22:22.190Z,12.25
2022-12-14T03:24:53.789Z,11.43
2022-12-14T03:27:27.440Z,11.15
2022-12-14T03:30:05.514Z,10.93
2022-12-14T03:32:35.624Z,12.68
2022-12-14T03:35:07.399Z,11.93
2022-12-14T03:37:53.571Z,11.27
2022-12-14T03:40:28.733Z,13.48
2022-12-14T03:43:40.173Z,12.25
2022-12-14T03:46:22.802Z,11.40
2022-12-14T03:48:54.678Z,12.43
2022-12-14T03:51:35.344Z,11.23
2022-12-14T03:54:08.618Z,11.73
2022-12-14T03:56:48.315Z,11.50
2022-12-14T03:59:34.198Z,11.77
2022-12-14T04:02:07.519Z,11.90
2022-12-14T04:04:39.735Z,12.52
2022-12-14T04:07:25.547Z,11.15
2022-12-14T04:10:25.439Z,11.40
2022-12-14T04:13:17.918Z,11.63
2022-12-14T04:16:06.815Z,12.57
2022-12-14T04:18:59.800Z,14.23
2022-12-14T04:21:44.596Z,80.80
2022-12-14T04:24:50.798Z,15.00
2022-12-14T04:27:39.126Z,14.43
2022-12-14T04:30:08.600Z,15.20
2022-12-14T04:32:51.805Z,16.23
2022-12-14T04:35:53.938Z,15.07
2022-12-14T04:38:32.982Z,14.77
2022-12-14T04:41:06.403Z,13.65
2022-12-14T04:43:39.055Z,15.15
2022-12-14T04:46:13.870Z,12.95
2022-12-14T04:48:56.886Z,12.38
2022-12-14T04:51:27.523Z,13.13
2022-12-14T04:53:59.974Z,12.90
2022-12-14T04:56:44.335Z,13.68
2022-12-14T04:59:11.155Z,13.15
2022-12-14T05:01:48.927Z,13.03
2022-12-14T05:04:40.941Z,13.63
2022-12-14T05:07:32.267Z,13.17
2022-12-14T05:10:16.445Z,13.50
2022-12-14T05:13:08.475Z,13.38
2022-12-14T05:15:49.120Z,13.75
2022-12-14T05:18:16.314Z,12.40
2022-12-14T05:20:43.165Z,12.75
2022-12-14T05:23:09.980Z,12.50
2022-12-14T05:25:36.689Z,12.57
2022-12-14T05:28:03.714Z,12.20
2022-12-14T05:30:30.707Z,11.95
2022-12-14T05:32:57.758Z,12.18
2022-12-14T05:35:24.497Z,12.88
2022-12-14T05:37:51.237Z,12.68
2022-12-14T05:40:18.229Z,11.00
2022-12-14T05:42:47.699Z,12.30
2022-12-14T05:45:17.841Z,13.13
2022-12-14T05:47:45.026Z,11.32
2022-12-14T05:50:12.102Z,11.70
2022-12-14T05:52:38.902Z,13.27
2022-12-14T05:55:06.589Z,12.90
2022-12-14T05:57:33.339Z,13.80
2022-12-14T06:00:00.169Z,14.07
2022-12-14T06:02:27.145Z,12.70
2022-12-14T06:04:54.056Z,13.20
2022-12-14T06:07:27.300Z,12.63
2022-12-14T06:09:54.513Z,11.65
2022-12-14T06:12:21.236Z,12.18
2022-12-14T06:14:48.637Z,11.68
2022-12-14T06:17:15.294Z,12.98
2022-12-14T06:19:43.039Z,12.75
2022-12-14T06:22:16.809Z,12.82
2022-12-14T06:24:43.519Z,12.10
2022-12-14T06:27:10.253Z,11.38
2022-12-14T06:29:36.980Z,12.00
2022-12-14T06:32:03.822Z,11.90
2022-12-14T06:34:32.897Z,12.25
2022-12-14T06:37:03.566Z,11.77
2022-12-14T06:39:30.407Z,11.82
2022-12-14T06:41:57.169Z,12.77
2022-12-14T06:44:23.886Z,13.30
2022-12-14T06:46:50.736Z,12.57
2022-12-14T06:49:17.524Z,13.02
2022-12-14T06:51:44.318Z,13.98
2022-12-14T06:54:12.678Z,12.75
2022-12-14T06:56:40.614Z,12.02
2022-12-14T06:59:08.668Z,12.85
2022-12-14T07:01:36.792Z,13.20
2022-12-14T07:04:05.003Z,13.52
2022-12-14T07:06:34.787Z,12.80
2022-12-14T07:09:02.252Z,12.75
2022-12-14T07:11:30.879Z,13.18
2022-12-14T07:14:00.673Z,12.67
2022-12-14T07:16:31.735Z,12.73
2022-12-14T07:18:59.135Z,12.73
2022-12-14T07:21:26.670Z,13.02
2022-12-14T07:23:53.541Z,12.13
2022-12-14T07:26:23.136Z,12.63
2022-12-14T07:28:50.770Z,13.25
2022-12-14T07:31:23.105Z,13.23
2022-12-14T07:33:52.424Z,12.90
2022-12-14T07:36:22.241Z,12.15
2022-12-14T07:38:51.426Z,11.93
2022-12-14T07:41:24.212Z,12.48
2022-12-14T07:43:53.594Z,12.02
2022-12-14T07:46:23.890Z,11.63
2022-12-14T07:48:56.256Z,12.02
2022-12-14T07:51:25.148Z,11.27
2022-12-14T07:53:52.665Z,12.40
2022-12-14T07:56:21.883Z,12.90
2022-12-14T07:58:49.207Z,12.75
2022-12-14T08:01:20.529Z,13.18
2022-12-14T08:03:49.758Z,12.32
2022-12-14T08:06:18.352Z,12.40
2022-12-14T08:08:46.006Z,13.07
2022-12-14T08:11:14.398Z,12.40
2022-12-14T08:13:43.199Z,12.82
2022-12-14T08:16:13.394Z,12.45
2022-12-14T08:18:40.913Z,11.98
2022-12-14T08:21:08.968Z,13.70
2022-12-14T08:23:36.566Z,11.60
2022-12-14T08:26:05.005Z,12.07
2022-12-14T08:28:32.787Z,11.50
2022-12-14T08:31:12.268Z,12.65
2022-12-14T08:33:40.086Z,12.57
2022-12-14T08:36:13.021Z,13.10
2022-12-14T08:38:40.944Z,12.80
2022-12-14T08:41:16.544Z,13.52
2022-12-14T08:43:55.131Z,12.98
2022-12-14T08:46:22.638Z,14.50
2022-12-14T08:48:52.422Z,12.85
2022-12-14T08:51:20.497Z,14.45
2022-12-14T08:53:47.703Z,12.45
2022-12-14T08:56:19.059Z,13.57
2022-12-14T08:58:46.103Z,13.52
2022-12-14T09:01:15.789Z,13.15
2022-12-14T09:03:44.957Z,14.68
2022-12-14T09:06:18.054Z,12.57
2022-12-14T09:08:45.187Z,14.13
2022-12-14T09:11:13.930Z,13.53
2022-12-14T09:13:43.215Z,12.07
2022-12-14T09:16:15.793Z,14.05
2022-12-14T09:18:42.881Z,13.40
2022-12-14T09:21:10.798Z,13.35
2022-12-14T09:23:38.760Z,15.27
2022-12-14T09:26:10.121Z,13.75
2022-12-14T09:28:39.712Z,13.73
2022-12-14T09:31:09.965Z,14.18
2022-12-14T09:33:36.984Z,15.10
2022-12-14T09:36:13.791Z,14.10
2022-12-14T09:38:46.957Z,13.60
2022-12-14T09:41:26.485Z,14.13
2022-12-14T09:44:04.354Z,13.98
2022-12-14T09:46:52.644Z,14.68
2022-12-14T09:49:41.159Z,12.27
2022-12-14T09:52:15.710Z,12.98
2022-12-14T09:54:44.346Z,14.07
2022-12-14T09:57:18.787Z,14.88
2022-12-14T09:59:45.900Z,13.60
2022-12-14T10:02:31.338Z,15.63
2022-12-14T10:05:05.398Z,15.32
2022-12-14T10:07:55.061Z,13.60
2022-12-14T10:10:28.570Z,15.35
2022-12-14T10:13:01.618Z,24.15
2022-12-14T10:15:35.121Z,26.85
2022-12-14T10:21:22.947Z,33.87
2022-12-14T10:24:02.460Z,32.25
2022-12-14T10:26:37.094Z,28.53
2022-12-14T10:29:11.666Z,30.48
2022-12-14T10:31:44.722Z,27.02
2022-12-14T10:34:24.896Z,29.02
2022-12-14T10:36:59.442Z,27.30
2022-12-14T10:39:49.482Z,30.80
2022-12-14T10:42:23.098Z,26.63
2022-12-14T10:45:09.695Z,28.17
2022-12-14T10:47:53.717Z,27.13
2022-12-14T10:50:34.549Z,24.92
2022-12-14T10:53:04.051Z,23.83
2022-12-14T10:55:35.692Z,23.13
2022-12-14T10:58:03.572Z,24.55
2022-12-14T11:00:30.373Z,24.27
2022-12-14T11:02:58.327Z,20.50
2022-12-14T11:05:40.990Z,21.60
2022-12-14T11:08:08.782Z,21.73
2022-12-14T11:10:39.288Z,20.65
2022-12-14T11:13:08.991Z,20.40
2022-12-14T11:15:37.675Z,19.58
2022-12-14T11:18:17.273Z,21.70
2022-12-14T11:20:59.359Z,20.55
2022-12-14T11:23:29.411Z,19.05
2022-12-14T11:26:02.014Z,19.67
2022-12-14T11:28:36.989Z,19.08
2022-12-14T11:31:22.050Z,18.08
2022-12-14T11:33:54.893Z,15.77
2022-12-14T11:36:25.413Z,17.08
2022-12-14T11:39:03.144Z,19.45
2022-12-14T11:41:36.908Z,16.17
2022-12-14T11:44:14.391Z,18.52
2022-12-14T11:47:02.247Z,18.38
2022-12-14T11:49:42.373Z,15.48
2022-12-14T11:52:13.520Z,17.30
2022-12-14T11:54:50.210Z,15.68
2022-12-14T11:57:32.218Z,15.65
2022-12-14T12:00:04.638Z,15.02
2022-12-14T12:02:36.263Z,15.48
2022-12-14T12:05:14.464Z,14.70
2022-12-14T12:07:50.450Z,16.80
2022-12-14T12:10:28.155Z,15.43
2022-12-14T12:13:01.278Z,15.27
2022-12-14T12:15:31.171Z,14.10
2022-12-14T12:18:25.664Z,13.73
2022-12-14T12:20:55.860Z,14.13
2022-12-14T12:23:27.166Z,13.63
2022-12-14T12:25:56.428Z,13.97
2022-12-14T12:28:28.358Z,13.48
2022-12-14T12:31:09.013Z,14.50
2022-12-14T12:33:47.305Z,14.00
2022-12-14T12:36:23.382Z,14.73
2022-12-14T12:39:15.546Z,15.63
2022-12-14T12:42:03.621Z,14.82
2022-12-14T12:44:52.405Z,14.32
2022-12-14T12:47:46.248Z,13.40
2022-12-14T12:50:18.092Z,13.55
2022-12-14T12:53:14.680Z,12.98
2022-12-14T12:55:47.238Z,13.40
2022-12-14T12:58:29.232Z,13.00
2022-12-14T13:01:00.073Z,13.10
2022-12-14T13:03:37.485Z,12.25
2022-12-14T13:06:19.871Z,13.10
2022-12-14T13:08:51.568Z,11.82
2022-12-14T13:11:28.822Z,12.85
2022-12-14T13:14:03.295Z,13.98
2022-12-14T13:16:37.111Z,12.15
2022-12-14T13:22:24.674Z,12.70
2022-12-14T13:24:58.688Z,11.43
2022-12-14T13:27:37.956Z,12.20
2022-12-14T13:30:38.776Z,10.90
2022-12-14T13:33:05.845Z,13.05
2022-12-14T13:35:33.111Z,11.30
2022-12-14T13:38:32.651Z,10.90
2022-12-14T13:41:21.354Z,12.05
2022-12-14T13:43:48.504Z,12.67
2022-12-14T13:46:24.702Z,11.32
2022-12-14T13:48:55.399Z,12.90
2022-12-14T13:51:31.137Z,11.00
2022-12-14T13:53:59.526Z,12.65
2022-12-14T13:56:39.473Z,10.52
2022-12-14T13:59:37.909Z,10.20
2022-12-14T14:02:05.890Z,12.63
2022-12-14T14:04:35.727Z,9.68
2022-12-14T14:07:24.346Z,9.90
2022-12-14T14:10:02.053Z,9.45
2022-12-14T14:12:37.819Z,11.02
2022-12-14T14:15:04.785Z,8.38
2022-12-14T14:17:42.691Z,9.40
2022-12-14T14:20:33.016Z,10.35
2022-12-14T14:23:28.424Z,8.63
2022-12-14T14:26:18.138Z,8.55
2022-12-14T14:28:49.495Z,8.63
2022-12-14T14:31:16.594Z,8.32
2022-12-14T14:33:54.755Z,9.73
2022-12-14T14:36:33.072Z,10.80
2022-12-14T14:39:19.001Z,10.95
2022-12-14T14:41:53.699Z,14.30
2022-12-14T14:44:33.752Z,18.77
2022-12-14T14:47:07.394Z,19.08
2022-12-14T14:49:40.194Z,16.75
2022-12-14T14:52:41.555Z,17.23
2022-12-14T14:55:52.664Z,20.30
2022-12-14T14:58:46.934Z,16.35
2022-12-14T15:01:29.122Z,13.32
2022-12-14T15:04:03.873Z,15.80
2022-12-14T15:06:40.919Z,13.83
2022-12-14T15:09:13.310Z,13.07
2022-12-14T15:11:50.818Z,14.38
2022-12-14T15:14:33.074Z,14.77
2022-12-14T15:17:19.318Z,14.55
2022-12-14T15:19:47.637Z,10.30
2022-12-14T15:22:19.363Z,12.57
2022-12-14T15:24:50.579Z,13.15
2022-12-14T15:27:27.142Z,10.35
2022-12-14T15:30:11.697Z,11.93
2022-12-14T15:32:54.277Z,11.90
2022-12-14T15:35:28.437Z,12.70
2022-12-14T15:38:00.251Z,12.80
2022-12-14T15:40:32.101Z,12.55
2022-12-14T15:43:01.351Z,11.65
2022-12-14T15:45:31.496Z,10.50
2022-12-14T15:48:14.039Z,12.07
2022-12-14T15:50:45.142Z,14.97
2022-12-14T15:53:21.809Z,11.30
2022-12-14T15:56:00.300Z,11.13
2022-12-14T15:58:35.602Z,11.73
2022-12-14T16:01:13.908Z,14.03
2022-12-14T16:03:45.047Z,13.13
2022-12-14T16:06:14.188Z,42.10
2022-12-14T16:08:52.120Z,68.45
2022-12-14T16:11:44.441Z,110.60
2022-12-14T16:14:26.433Z,145.10
2022-12-14T16:16:53.645Z,154.52
2022-12-14T16:19:29.849Z,158.50
2022-12-14T16:22:10.228Z,168.60
2022-12-14T16:24:38.244Z,177.18
2022-12-14T16:27:05.443Z,179.63
2022-12-14T16:29:33.518Z,185.80
2022-12-14T16:32:06.921Z,191.25
2022-12-14T16:34:34.270Z,186.70
2022-12-14T16:39:52.363Z,173.73
2022-12-14T16:42:24.999Z,164.23
2022-12-14T16:44:54.015Z,148.57
2022-12-14T16:47:20.759Z,172.23
2022-12-14T16:49:54.913Z,198.57
2022-12-14T16:52:26.229Z,167.02
2022-12-14T16:55:17.657Z,153.27
2022-12-14T16:57:55.665Z,150.90
2022-12-14T17:00:30.591Z,138.23
2022-12-14T17:03:00.491Z,130.07
2022-12-14T17:05:38.757Z,119.53
2022-12-14T17:08:07.170Z,121.10
2022-12-14T17:10:34.754Z,115.70
2022-12-14T17:13:03.681Z,111.10
2022-12-14T17:15:33.413Z,108.43
2022-12-14T17:18:03.890Z,107.40
2022-12-14T17:20:36.238Z,101.22
2022-12-14T17:23:04.274Z,105.47
2022-12-14T17:25:32.735Z,96.70
2022-12-14T17:28:00.501Z,91.00
2022-12-14T17:30:27.557Z,92.18
2022-12-14T17:32:55.512Z,87.95
2022-12-14T17:35:25.273Z,90.53
2022-12-14T17:37:53.092Z,88.55
2022-12-14T17:40:19.849Z,86.82
2022-12-14T17:42:51.626Z,85.50
2022-12-14T17:45:24.583Z,80.80
2022-12-14T17:47:51.841Z,76.53
2022-12-14T17:50:19.554Z,76.07
2022-12-14T17:52:47.585Z,70.53
2022-12-14T17:55:19.930Z,71.72
2022-12-14T17:57:47.145Z,67.65
2022-12-14T18:00:39.954Z,71.20
2022-12-14T18:03:08.958Z,63.83
2022-12-14T18:05:36.377Z,67.22
2022-12-14T18:08:03.669Z,62.88
2022-12-14T18:10:30.985Z,61.95
2022-12-14T18:12:58.490Z,57.63
2022-12-14T18:15:37.792Z,59.35
2022-12-14T18:18:06.774Z,60.35
2022-12-14T18:20:34.023Z,56.83
2022-12-14T18:23:00.923Z,58.42
2022-12-14T18:25:30.245Z,54.58
2022-12-14T18:27:57.494Z,54.38
2022-12-14T18:30:24.729Z,53.10
2022-12-14T18:32:51.923Z,53.10
2022-12-14T18:35:21.190Z,53.38
2022-12-14T18:37:49.257Z,52.17
2022-12-14T18:40:19.391Z,50.53
2022-12-14T18:42:47.028Z,50.25
2022-12-14T18:45:22.626Z,44.90
2022-12-14T18:47:49.822Z,48.22
2022-12-14T18:50:18.575Z,46.60
2022-12-14T18:52:46.708Z,45.85
2022-12-14T18:55:19.377Z,47.55
2022-12-14T18:57:47.954Z,47.20
2022-12-14T19:00:19.291Z,46.47
2022-12-14T19:02:47.025Z,45.00
2022-12-14T19:05:23.228Z,43.60
2022-12-14T19:07:52.766Z,43.75
2022-12-14T19:10:22.799Z,44.83
2022-12-14T19:12:50.247Z,39.97
2022-12-14T19:15:20.167Z,43.38
2022-12-14T19:17:47.054Z,43.87
2022-12-14T19:20:14.772Z,41.47
2022-12-14T19:22:42.265Z,44.03
2022-12-14T19:25:09.967Z,48.60
2022-12-14T19:28:15.578Z,50.47
2022-12-14T19:30:24.297Z,47.85
2022-12-14T19:32:55.506Z,47.60
2022-12-14T19:35:23.578Z,46.07
2022-12-14T19:37:50.762Z,44.83
2022-12-14T19:40:18.018Z,44.05
2022-12-14T19:42:46.348Z,42.08
2022-12-14T19:45:13.766Z,42.35
2022-12-14T19:47:40.697Z,38.65
2022-12-14T19:50:08.230Z,36.65
2022-12-14T19:52:35.089Z,38.22
2022-12-14T19:55:02.411Z,37.60
2022-12-14T19:57:29.410Z,36.10
2022-12-14T19:59:57.146Z,34.05
2022-12-14T20:02:24.066Z,32.80
2022-12-14T20:04:51.017Z,34.65
2022-12-14T20:07:17.985Z,31.77
2022-12-14T20:09:44.688Z,32.40
2022-12-14T20:12:11.760Z,32.33
2022-12-14T20:14:42.624Z,30.60
2022-12-14T20:17:11.179Z,28.30
2022-12-14T20:19:39.599Z,26.88
2022-12-14T20:22:08.142Z,27.52
2022-12-14T20:24:35.796Z,26.90
2022-12-14T20:27:02.908Z,27.70
2022-12-14T20:29:29.738Z,27.83
2022-12-14T20:31:56.743Z,25.67
2022-12-14T20:34:24.286Z,25.85
2022-12-14T20:36:51.130Z,24.58
2022-12-14T20:39:17.824Z,25.13
2022-12-14T20:41:44.633Z,24.13
2022-12-14T20:44:15.858Z,23.42
2022-12-14T20:46:45.384Z,22.48
2022-12-14T20:49:15.668Z,22.03
2022-12-14T20:51:43.739Z,24.43
2022-12-14T20:54:16.435Z,22.88
2022-12-14T20:56:43.706Z,20.63
2022-12-14T20:59:10.849Z,21.92
2022-12-14T21:01:38.956Z,22.02
2022-12-14T21:04:06.547Z,20.75
2022-12-14T21:06:37.454Z,21.63
2022-12-14T21:09:11.586Z,20.58
2022-12-14T21:12:02.277Z,18.58
2022-12-14T21:14:32.302Z,20.05
2022-12-14T21:17:01.079Z,20.35
2022-12-14T21:19:28.737Z,20.40
2022-12-14T21:21:55.427Z,19.70
2022-12-14T21:25:02.222Z,19.02
2022-12-14T21:27:16.438Z,19.33
2022-12-14T21:29:43.271Z,19.30
2022-12-14T21:32:10.091Z,21.07
2022-12-14T21:34:36.949Z,20.23
2022-12-14T21:37:03.702Z,21.03
2022-12-14T21:39:30.405Z,19.45
2022-12-14T21:42:15.653Z,18.50
2022-12-14T21:44:43.849Z,19.25
2022-12-14T21:47:15.482Z,18.88
2022-12-14T21:49:43.853Z,18.55
2022-12-14T21:52:14.151Z,19.17
2022-12-14T21:54:41.486Z,18.00
2022-12-14T21:57:33.026Z,18.48
2022-12-14T22:00:00.041Z,19.20
2022-12-14T22:02:27.077Z,18.90
2022-12-14T22:05:00.873Z,17.63
2022-12-14T22:07:33.697Z,18.05
2022-12-14T22:10:00.893Z,18.98
2022-12-14T22:12:27.853Z,17.73
2022-12-14T22:14:54.824Z,17.10
2022-12-14T22:17:21.541Z,17.23
2022-12-14T22:19:50.625Z,18.13
2022-12-14T22:22:17.428Z,17.40
2022-12-14T22:24:44.775Z,17.00
2022-12-14T22:27:12.700Z,18.20
2022-12-14T22:29:39.657Z,17.67
2022-12-14T22:32:07.221Z,17.25
2022-12-14T22:34:34.286Z,18.10
2022-12-14T22:37:01.586Z,16.23
2022-12-14T22:39:28.386Z,16.13
2022-12-14T22:41:55.089Z,15.65
2022-12-14T22:44:21.766Z,15.47
2022-12-14T22:46:48.451Z,15.60
2022-12-14T22:49:16.720Z,15.35
2022-12-14T22:51:43.580Z,16.10
2022-12-14T22:54:18.022Z,16.13
2022-12-14T22:56:54.070Z,15.52
2022-12-14T22:59:25.672Z,15.83
2022-12-14T23:01:53.286Z,15.57
2022-12-14T23:04:20.869Z,14.10
2022-12-14T23:06:47.838Z,15.27
2022-12-14T23:09:33.221Z,15.40
2022-12-14T23:12:21.872Z,14.73
2022-12-14T23:15:08.058Z,14.57
2022-12-14T23:17:54.006Z,14.98
2022-12-14T23:20:39.501Z,13.45
2022-12-14T23:23:28.344Z,12.93
2022-12-14T23:26:13.978Z,14.00
2022-12-14T23:28:59.414Z,14.50
2022-12-14T23:31:45.002Z,13.20
2022-12-14T23:34:30.456Z,14.10
2022-12-14T23:37:20.043Z,13.63
2022-12-14T23:40:06.002Z,13.90
2022-12-14T23:42:51.714Z,15.43
2022-12-14T23:45:37.078Z,13.10
2022-12-14T23:48:22.763Z,12.57
2022-12-14T23:51:08.221Z,13.48
2022-12-14T23:53:53.853Z,12.32
2022-12-14T23:56:39.685Z,12.95
2022-12-14T23:59:31.575Z,12.85
